Aviation Digital Data Service (ADDS)

Output produced by METARs form (1339 UTC 19 April 2018)
found at http://aviationweather.gov/adds/metars/
 
KPBG 191127Z 1912/2012 00000KT P6SM SCT025 BKN060 
     FM191600 VRB03KT P6SM BKN035 
     FM191800 32006KT P6SM VCSH BKN035 
     FM200300 31010KT P6SM VCSH OVC030